createdAt,value
2023-01-06T00:00:06.840Z,1014.68
2023-01-06T00:01:06.844Z,1014.66
2023-01-06T00:02:06.861Z,1014.68
2023-01-06T00:03:06.976Z,1014.64
2023-01-06T00:04:06.853Z,1014.60
2023-01-06T00:05:06.861Z,1014.65
2023-01-06T00:06:06.874Z,1014.66
2023-01-06T00:07:06.864Z,1014.63
2023-01-06T00:08:06.877Z,1014.63
2023-01-06T00:09:06.872Z,1014.58
2023-01-06T00:10:06.875Z,1014.58
2023-01-06T00:11:06.888Z,1014.55
2023-01-06T00:12:06.886Z,1014.56
2023-01-06T00:13:06.893Z,1014.46
2023-01-06T00:14:06.912Z,1014.47
2023-01-06T00:15:06.894Z,1014.49
2023-01-06T00:16:07.008Z,1014.48
2023-01-06T00:17:06.901Z,1014.47
2023-01-06T00:18:06.911Z,1014.48
2023-01-06T00:19:07.033Z,1014.47
2023-01-06T00:20:06.922Z,1014.43
2023-01-06T00:21:06.922Z,1014.42
2023-01-06T00:22:06.935Z,1014.39
2023-01-06T00:23:06.935Z,1014.42
2023-01-06T00:24:06.937Z,1014.38
2023-01-06T00:25:06.935Z,1014.38
2023-01-06T00:26:06.959Z,1014.38
2023-01-06T00:27:06.952Z,1014.33
2023-01-06T00:28:06.960Z,1014.34
2023-01-06T00:29:06.953Z,1014.34
2023-01-06T00:30:06.972Z,1014.36
2023-01-06T00:31:07.081Z,1014.35
2023-01-06T00:32:06.965Z,1014.36
2023-01-06T00:33:06.975Z,1014.39
2023-01-06T00:34:06.977Z,1014.41
2023-01-06T00:35:07.116Z,1014.42
2023-01-06T00:36:06.983Z,1014.37
2023-01-06T00:37:06.991Z,1014.34
2023-01-06T00:38:07.000Z,1014.31
2023-01-06T00:39:06.992Z,1014.29
2023-01-06T00:40:07.005Z,1014.30
2023-01-06T00:41:07.001Z,1014.35
2023-01-06T00:42:07.015Z,1014.33
2023-01-06T00:43:07.011Z,1014.28
2023-01-06T00:44:07.021Z,1014.25
2023-01-06T00:45:07.019Z,1014.23
2023-01-06T00:46:07.072Z,1014.22
2023-01-06T00:47:07.021Z,1014.18
2023-01-06T00:48:07.030Z,1014.21
2023-01-06T00:49:07.848Z,1014.15
2023-01-06T00:50:07.049Z,1014.15
2023-01-06T00:51:07.164Z,1014.12
2023-01-06T00:52:07.054Z,1014.12
2023-01-06T00:53:07.056Z,1014.11
2023-01-06T00:54:07.083Z,1014.09
2023-01-06T00:55:07.058Z,1014.10
2023-01-06T00:56:07.060Z,1014.17
2023-01-06T00:57:07.065Z,1014.15
2023-01-06T00:58:07.069Z,1014.08
2023-01-06T00:59:07.078Z,1014.13
2023-01-06T01:00:07.075Z,1014.12
2023-01-06T01:01:07.234Z,1014.12
2023-01-06T01:02:07.176Z,1014.12
2023-01-06T01:03:07.101Z,1014.13
2023-01-06T01:04:07.103Z,1014.16
2023-01-06T01:05:07.106Z,1014.18
2023-01-06T01:06:07.099Z,1014.16
2023-01-06T01:07:07.220Z,1014.21
2023-01-06T01:08:07.107Z,1014.19
2023-01-06T01:09:07.112Z,1014.17
2023-01-06T01:10:07.125Z,1014.20
2023-01-06T01:11:07.135Z,1014.21
2023-01-06T01:12:07.132Z,1014.20
2023-01-06T01:13:07.133Z,1014.20
2023-01-06T01:14:07.134Z,1014.19
2023-01-06T01:15:07.145Z,1014.16
2023-01-06T01:16:07.206Z,1014.14
2023-01-06T01:17:07.145Z,1014.09
2023-01-06T01:18:07.149Z,1014.11
2023-01-06T01:19:07.151Z,1014.08
2023-01-06T01:20:07.183Z,1014.10
2023-01-06T01:21:07.171Z,1014.18
2023-01-06T01:22:07.170Z,1014.18
2023-01-06T01:23:07.285Z,1014.19
2023-01-06T01:24:07.180Z,1014.19
2023-01-06T01:25:07.174Z,1014.15
2023-01-06T01:26:07.191Z,1014.18
2023-01-06T01:27:07.183Z,1014.16
2023-01-06T01:28:07.187Z,1014.17
2023-01-06T01:29:07.202Z,1014.14
2023-01-06T01:30:07.205Z,1014.16
2023-01-06T01:31:07.257Z,1014.23
2023-01-06T01:32:07.211Z,1014.28
2023-01-06T01:33:07.215Z,1014.23
2023-01-06T01:34:07.216Z,1014.18
2023-01-06T01:35:07.218Z,1014.13
2023-01-06T01:36:07.224Z,1014.15
2023-01-06T01:37:07.234Z,1014.15
2023-01-06T01:38:07.232Z,1014.14
2023-01-06T01:39:07.358Z,1014.15
2023-01-06T01:40:07.244Z,1014.10
2023-01-06T01:41:07.241Z,1014.17
2023-01-06T01:42:07.251Z,1014.17
2023-01-06T01:43:07.256Z,1014.15
2023-01-06T01:44:07.259Z,1014.17
2023-01-06T01:45:07.265Z,1014.09
2023-01-06T01:46:07.299Z,1014.09
2023-01-06T01:47:07.263Z,1014.02
2023-01-06T01:48:07.269Z,1014.03
2023-01-06T01:49:07.275Z,1013.97
2023-01-06T01:50:07.276Z,1013.95
2023-01-06T01:51:07.289Z,1013.99
2023-01-06T01:52:07.288Z,1014.01
2023-01-06T01:53:07.286Z,1013.99
2023-01-06T01:54:07.299Z,1013.98
2023-01-06T01:55:07.413Z,1013.99
2023-01-06T01:56:07.300Z,1013.92
2023-01-06T01:57:07.310Z,1013.93
2023-01-06T01:58:07.327Z,1013.90
2023-01-06T01:59:07.322Z,1013.89
2023-01-06T02:00:07.331Z,1013.87
2023-01-06T02:01:07.469Z,1013.86
2023-01-06T02:02:07.504Z,1013.84
2023-01-06T02:03:07.447Z,1013.85
2023-01-06T02:04:07.345Z,1013.81
2023-01-06T02:05:07.336Z,1013.79
2023-01-06T02:06:07.342Z,1013.78
2023-01-06T02:07:07.345Z,1013.80
2023-01-06T02:08:07.348Z,1013.74
2023-01-06T02:09:07.389Z,1013.75
2023-01-06T02:10:07.364Z,1013.70
2023-01-06T02:11:07.506Z,1013.67
2023-01-06T02:12:07.367Z,1013.63
2023-01-06T02:13:07.367Z,1013.66
2023-01-06T02:14:07.383Z,1013.68
2023-01-06T02:15:07.378Z,1013.65
2023-01-06T02:16:07.433Z,1013.63
2023-01-06T02:17:07.392Z,1013.68
2023-01-06T02:18:07.395Z,1013.67
2023-01-06T02:19:07.403Z,1013.71
2023-01-06T02:20:07.397Z,1013.72
2023-01-06T02:21:07.404Z,1013.71
2023-01-06T02:22:07.403Z,1013.72
2023-01-06T02:23:07.408Z,1013.69
2023-01-06T02:24:07.414Z,1013.70
2023-01-06T02:25:07.424Z,1013.63
2023-01-06T02:26:07.427Z,1013.66
2023-01-06T02:27:07.639Z,1013.67
2023-01-06T02:28:07.432Z,1013.64
2023-01-06T02:29:07.440Z,1013.66
2023-01-06T02:30:07.444Z,1013.59
2023-01-06T02:31:07.518Z,1013.60
2023-01-06T02:32:07.453Z,1013.59
2023-01-06T02:33:07.471Z,1013.63
2023-01-06T02:34:07.470Z,1013.60
2023-01-06T02:35:07.453Z,1013.59
2023-01-06T02:36:07.473Z,1013.59
2023-01-06T02:37:07.472Z,1013.56
2023-01-06T02:38:07.472Z,1013.52
2023-01-06T02:39:07.484Z,1013.56
2023-01-06T02:40:07.482Z,1013.56
2023-01-06T02:41:07.489Z,1013.57
2023-01-06T02:42:07.497Z,1013.48
2023-01-06T02:43:07.609Z,1013.50
2023-01-06T02:44:07.489Z,1013.49
2023-01-06T02:45:07.516Z,1013.47
2023-01-06T02:46:07.566Z,1013.46
2023-01-06T02:47:07.522Z,1013.45
2023-01-06T02:48:07.519Z,1013.43
2023-01-06T02:49:07.512Z,1013.41
2023-01-06T02:50:07.517Z,1013.42
2023-01-06T02:51:07.532Z,1013.33
2023-01-06T02:52:07.531Z,1013.35
2023-01-06T02:53:07.532Z,1013.32
2023-01-06T02:54:07.536Z,1013.28
2023-01-06T02:55:07.537Z,1013.26
2023-01-06T02:56:07.537Z,1013.23
2023-01-06T02:57:07.538Z,1013.27
2023-01-06T02:58:07.544Z,1013.29
2023-01-06T02:59:07.664Z,1013.25
2023-01-06T03:00:07.564Z,1013.23
2023-01-06T03:01:07.595Z,1013.23
2023-01-06T03:02:07.720Z,1013.21
2023-01-06T03:03:07.573Z,1013.23
2023-01-06T03:04:07.573Z,1013.18
2023-01-06T03:05:07.574Z,1013.15
2023-01-06T03:06:07.576Z,1013.13
2023-01-06T03:07:07.592Z,1013.15
2023-01-06T03:08:07.589Z,1013.16
2023-01-06T03:09:07.593Z,1013.16
2023-01-06T03:10:07.597Z,1013.13
2023-01-06T03:11:07.598Z,1013.11
2023-01-06T03:12:07.605Z,1013.14
2023-01-06T03:13:07.607Z,1013.10
2023-01-06T03:14:07.611Z,1013.11
2023-01-06T03:15:07.732Z,1013.09
2023-01-06T03:16:07.632Z,1013.10
2023-01-06T03:17:07.615Z,1013.08
2023-01-06T03:18:07.630Z,1013.11
2023-01-06T03:19:07.620Z,1013.07
2023-01-06T03:20:07.668Z,1013.07
2023-01-06T03:21:07.629Z,1013.10
2023-01-06T03:22:07.644Z,1013.06
2023-01-06T03:23:07.647Z,1013.05
2023-01-06T03:24:07.654Z,1013.02
2023-01-06T03:25:07.643Z,1012.96
2023-01-06T03:26:07.648Z,1012.99
2023-01-06T03:27:07.662Z,1013.00
2023-01-06T03:28:07.662Z,1012.98
2023-01-06T03:29:07.671Z,1012.98
2023-01-06T03:30:07.671Z,1012.98
2023-01-06T03:31:07.737Z,1012.97
2023-01-06T03:32:07.681Z,1012.97
2023-01-06T03:33:08.587Z,1012.97
2023-01-06T03:34:07.685Z,1012.98
2023-01-06T03:35:07.693Z,1012.96
2023-01-06T03:36:07.691Z,1012.95
2023-01-06T03:37:07.696Z,1012.93
2023-01-06T03:38:07.692Z,1012.99
2023-01-06T03:39:07.703Z,1012.95
2023-01-06T03:40:07.707Z,1012.96
2023-01-06T03:41:07.711Z,1012.98
2023-01-06T03:42:07.706Z,1012.94
2023-01-06T03:43:07.718Z,1012.96
2023-01-06T03:44:07.713Z,1012.93
2023-01-06T03:45:07.715Z,1012.96
2023-01-06T03:46:07.732Z,1012.91
2023-01-06T03:47:07.759Z,1012.90
2023-01-06T03:48:07.735Z,1012.89
2023-01-06T03:49:07.730Z,1012.83
2023-01-06T03:50:07.742Z,1012.93
2023-01-06T03:51:07.746Z,1012.81
2023-01-06T03:52:07.752Z,1012.76
2023-01-06T03:53:07.754Z,1012.75
2023-01-06T03:54:07.747Z,1012.74
2023-01-06T03:55:07.775Z,1012.70
2023-01-06T03:56:07.764Z,1012.69
2023-01-06T03:57:07.764Z,1012.65
2023-01-06T03:58:07.764Z,1012.67
2023-01-06T03:59:07.772Z,1012.66
2023-01-06T04:00:07.777Z,1012.67
2023-01-06T04:01:07.930Z,1012.68
2023-01-06T04:02:07.782Z,1012.66
2023-01-06T04:03:07.906Z,1012.65
2023-01-06T04:04:07.866Z,1012.66
2023-01-06T04:05:07.809Z,1012.65
2023-01-06T04:06:07.800Z,1012.63
2023-01-06T04:07:07.801Z,1012.60
2023-01-06T04:08:07.800Z,1012.56
2023-01-06T04:09:07.805Z,1012.59
2023-01-06T04:10:07.814Z,1012.59
2023-01-06T04:11:07.808Z,1012.62
2023-01-06T04:12:07.813Z,1012.59
2023-01-06T04:13:07.820Z,1012.63
2023-01-06T04:14:07.819Z,1012.58
2023-01-06T04:15:07.821Z,1012.58
2023-01-06T04:16:07.894Z,1012.57
2023-01-06T04:17:07.839Z,1012.54
2023-01-06T04:18:07.835Z,1012.56
2023-01-06T04:19:07.956Z,1012.53
2023-01-06T04:20:07.840Z,1012.54
2023-01-06T04:21:07.859Z,1012.56
2023-01-06T04:22:07.847Z,1012.56
2023-01-06T04:23:07.860Z,1012.56
2023-01-06T04:24:07.860Z,1012.56
2023-01-06T04:25:07.870Z,1012.57
2023-01-06T04:26:07.901Z,1012.56
2023-01-06T04:27:07.868Z,1012.54
2023-01-06T04:28:07.869Z,1012.57
2023-01-06T04:29:07.881Z,1012.55
2023-01-06T04:30:07.882Z,1012.56
2023-01-06T04:31:07.893Z,1012.53
2023-01-06T04:32:07.886Z,1012.51
2023-01-06T04:33:07.888Z,1012.50
2023-01-06T04:34:07.903Z,1012.51
2023-01-06T04:35:08.022Z,1012.46
2023-01-06T04:36:07.906Z,1012.48
2023-01-06T04:37:07.905Z,1012.44
2023-01-06T04:38:07.922Z,1012.44
2023-01-06T04:39:07.927Z,1012.43
2023-01-06T04:40:07.912Z,1012.46
2023-01-06T04:41:07.930Z,1012.42
2023-01-06T04:42:07.922Z,1012.41
2023-01-06T04:43:07.964Z,1012.38
2023-01-06T04:44:07.937Z,1012.36
2023-01-06T04:45:07.940Z,1012.32
2023-01-06T04:46:07.971Z,1012.34
2023-01-06T04:47:07.938Z,1012.34
2023-01-06T04:48:07.957Z,1012.33
2023-01-06T04:49:07.962Z,1012.37
2023-01-06T04:50:07.976Z,1012.26
2023-01-06T04:51:08.081Z,1012.34
2023-01-06T04:52:07.966Z,1012.35
2023-01-06T04:53:07.968Z,1012.34
2023-01-06T04:54:07.966Z,1012.34
2023-01-06T04:55:07.973Z,1012.29
2023-01-06T04:56:07.996Z,1012.31
2023-01-06T04:57:07.997Z,1012.29
2023-01-06T04:58:07.978Z,1012.31
2023-01-06T04:59:08.002Z,1012.26
2023-01-06T05:00:07.994Z,1012.21
2023-01-06T05:01:08.112Z,1012.20
2023-01-06T05:02:07.990Z,1012.19
2023-01-06T05:03:07.998Z,1012.17
2023-01-06T05:04:08.047Z,1012.13
2023-01-06T05:05:08.015Z,1012.14
2023-01-06T05:06:08.014Z,1012.08
2023-01-06T05:07:08.128Z,1012.09
2023-01-06T05:08:08.013Z,1012.12
2023-01-06T05:09:08.020Z,1012.17
2023-01-06T05:10:08.028Z,1012.16
2023-01-06T05:11:08.047Z,1012.14
2023-01-06T05:12:08.050Z,1012.11
2023-01-06T05:13:08.052Z,1012.15
2023-01-06T05:14:08.033Z,1012.14
2023-01-06T05:15:08.049Z,1012.12
2023-01-06T05:16:08.089Z,1012.16
2023-01-06T05:17:08.046Z,1012.14
2023-01-06T05:18:08.046Z,1012.13
2023-01-06T05:19:08.052Z,1012.19
2023-01-06T05:20:08.074Z,1012.18
2023-01-06T05:21:08.067Z,1012.22
2023-01-06T05:22:08.060Z,1012.20
2023-01-06T05:23:08.178Z,1012.18
2023-01-06T05:24:08.079Z,1012.27
2023-01-06T05:25:08.071Z,1012.28
2023-01-06T05:26:08.076Z,1012.25
2023-01-06T05:27:08.079Z,1012.28
2023-01-06T05:28:08.084Z,1012.27
2023-01-06T05:29:08.087Z,1012.25
2023-01-06T05:30:08.102Z,1012.23
2023-01-06T05:31:08.091Z,1012.22
2023-01-06T05:32:08.113Z,1012.22
2023-01-06T05:33:08.105Z,1012.22
2023-01-06T05:34:08.109Z,1012.23
2023-01-06T05:35:08.112Z,1012.22
2023-01-06T05:36:08.114Z,1012.21
2023-01-06T05:37:08.116Z,1012.16
2023-01-06T05:38:08.116Z,1012.12
2023-01-06T05:39:08.238Z,1012.07
2023-01-06T05:40:08.130Z,1012.03
2023-01-06T05:41:08.125Z,1012.02
2023-01-06T05:42:08.136Z,1012.00
2023-01-06T05:43:08.138Z,1011.95
2023-01-06T05:44:08.135Z,1011.97
2023-01-06T05:45:08.150Z,1011.90
2023-01-06T05:46:08.238Z,1011.86
2023-01-06T05:47:08.147Z,1011.86
2023-01-06T05:48:08.162Z,1011.89
2023-01-06T05:49:08.162Z,1011.90
2023-01-06T05:50:08.174Z,1011.90
2023-01-06T05:51:08.161Z,1011.90
2023-01-06T05:52:08.172Z,1011.94
2023-01-06T05:53:08.175Z,1011.96
2023-01-06T05:54:08.176Z,1011.96
2023-01-06T05:55:08.289Z,1011.94
2023-01-06T05:56:08.178Z,1011.91
2023-01-06T05:57:08.188Z,1011.91
2023-01-06T05:58:08.187Z,1011.87
2023-01-06T05:59:08.197Z,1011.82
2023-01-06T06:00:08.198Z,1011.81
2023-01-06T06:01:08.206Z,1011.80
2023-01-06T06:02:08.226Z,1011.77
2023-01-06T06:03:08.208Z,1011.78
2023-01-06T06:04:08.254Z,1011.79
2023-01-06T06:05:08.214Z,1011.76
2023-01-06T06:06:08.218Z,1011.77
2023-01-06T06:07:08.223Z,1011.77
2023-01-06T06:08:09.333Z,1011.76
2023-01-06T06:09:08.234Z,1011.69
2023-01-06T06:10:08.234Z,1011.71
2023-01-06T06:11:08.347Z,1011.72
2023-01-06T06:12:08.234Z,1011.70
2023-01-06T06:13:08.244Z,1011.71
2023-01-06T06:14:08.247Z,1011.70
2023-01-06T06:15:08.244Z,1011.73
2023-01-06T06:16:08.356Z,1011.72
2023-01-06T06:17:08.261Z,1011.72
2023-01-06T06:18:08.256Z,1011.71
2023-01-06T06:19:08.267Z,1011.72
2023-01-06T06:20:08.263Z,1011.69
2023-01-06T06:21:08.271Z,1011.68
2023-01-06T06:22:10.603Z,1011.67
2023-01-06T06:23:08.272Z,1011.70
2023-01-06T06:24:08.286Z,1011.70
2023-01-06T06:25:08.291Z,1011.71
2023-01-06T06:26:08.290Z,1011.75
2023-01-06T06:27:08.400Z,1011.75
2023-01-06T06:28:08.291Z,1011.81
2023-01-06T06:29:08.296Z,1011.71
2023-01-06T06:30:08.313Z,1011.73
2023-01-06T06:31:08.381Z,1011.70
2023-01-06T06:32:08.318Z,1011.63
2023-01-06T06:33:08.317Z,1011.58
2023-01-06T06:34:08.320Z,1011.55
2023-01-06T06:35:08.317Z,1011.65
2023-01-06T06:36:08.320Z,1011.62
2023-01-06T06:37:08.333Z,1011.58
2023-01-06T06:38:08.339Z,1011.57
2023-01-06T06:39:08.333Z,1011.55
2023-01-06T06:40:08.335Z,1011.52
2023-01-06T06:41:08.346Z,1011.56
2023-01-06T06:42:08.362Z,1011.51
2023-01-06T06:43:08.464Z,1011.50
2023-01-06T06:44:08.364Z,1011.52
2023-01-06T06:45:08.363Z,1011.57
2023-01-06T06:46:08.404Z,1011.59
2023-01-06T06:47:08.364Z,1011.58
2023-01-06T06:48:08.367Z,1011.58
2023-01-06T06:49:08.379Z,1011.56
2023-01-06T06:50:08.371Z,1011.56
2023-01-06T06:51:08.377Z,1011.63
2023-01-06T06:52:08.379Z,1011.64
2023-01-06T06:53:08.392Z,1011.64
2023-01-06T06:54:08.388Z,1011.67
2023-01-06T06:55:08.402Z,1011.66
2023-01-06T06:56:08.404Z,1011.62
2023-01-06T06:57:08.405Z,1011.63
2023-01-06T06:58:08.417Z,1011.63
2023-01-06T06:59:08.531Z,1011.68
2023-01-06T07:00:08.417Z,1011.68
2023-01-06T07:01:08.498Z,1011.68
2023-01-06T07:02:08.553Z,1011.71
2023-01-06T07:03:08.429Z,1011.65
2023-01-06T07:04:08.499Z,1011.66
2023-01-06T07:05:08.433Z,1011.68
2023-01-06T07:06:08.433Z,1011.66
2023-01-06T07:07:08.436Z,1011.67
2023-01-06T07:08:08.457Z,1011.67
2023-01-06T07:09:08.450Z,1011.66
2023-01-06T07:10:08.453Z,1011.63
2023-01-06T07:11:08.450Z,1011.64
2023-01-06T07:12:08.462Z,1011.63
2023-01-06T07:13:08.465Z,1011.61
2023-01-06T07:14:08.472Z,1011.63
2023-01-06T07:15:08.581Z,1011.61
2023-01-06T07:16:08.586Z,1011.57
2023-01-06T07:17:08.477Z,1011.59
2023-01-06T07:18:08.483Z,1011.58
2023-01-06T07:19:08.490Z,1011.56
2023-01-06T07:20:08.485Z,1011.55
2023-01-06T07:21:08.489Z,1011.54
2023-01-06T07:22:08.503Z,1011.57
2023-01-06T07:23:08.495Z,1011.54
2023-01-06T07:24:08.926Z,1011.54
2023-01-06T07:25:08.510Z,1011.47
2023-01-06T07:26:08.517Z,1011.49
2023-01-06T07:27:08.516Z,1011.51
2023-01-06T07:28:08.514Z,1011.55
2023-01-06T07:29:08.519Z,1011.55
2023-01-06T07:30:08.529Z,1011.52
2023-01-06T07:31:08.743Z,1011.49
2023-01-06T07:32:10.184Z,1011.47
2023-01-06T07:33:08.536Z,1011.43
2023-01-06T07:34:08.535Z,1011.41
2023-01-06T07:35:08.548Z,1011.36
2023-01-06T07:36:08.551Z,1011.39
2023-01-06T07:37:08.556Z,1011.39
2023-01-06T07:38:08.578Z,1011.33
2023-01-06T07:39:08.563Z,1011.39
2023-01-06T07:40:08.565Z,1011.42
2023-01-06T07:41:08.571Z,1011.44
2023-01-06T07:42:08.571Z,1011.45
2023-01-06T07:43:08.583Z,1011.49
2023-01-06T07:44:08.585Z,1011.50
2023-01-06T07:45:08.587Z,1011.48
2023-01-06T07:46:08.663Z,1011.48
2023-01-06T07:47:08.721Z,1011.44
2023-01-06T07:48:08.594Z,1011.41
2023-01-06T07:49:08.594Z,1011.43
2023-01-06T07:50:08.595Z,1011.42
2023-01-06T07:51:08.603Z,1011.44
2023-01-06T07:52:08.612Z,1011.45
2023-01-06T07:53:08.607Z,1011.46
2023-01-06T07:54:08.615Z,1011.47
2023-01-06T07:55:08.624Z,1011.42
2023-01-06T07:56:08.636Z,1011.42
2023-01-06T07:57:08.630Z,1011.47
2023-01-06T07:58:08.628Z,1011.48
2023-01-06T07:59:08.630Z,1011.50
2023-01-06T08:00:08.640Z,1011.53
2023-01-06T08:01:08.703Z,1011.57
2023-01-06T08:02:08.762Z,1011.56
2023-01-06T08:03:08.828Z,1011.55
2023-01-06T08:04:08.652Z,1011.49
2023-01-06T08:05:08.659Z,1011.44
2023-01-06T08:06:08.665Z,1011.41
2023-01-06T08:07:08.668Z,1011.45
2023-01-06T08:08:08.674Z,1011.41
2023-01-06T08:09:08.682Z,1011.42
2023-01-06T08:10:08.687Z,1011.42
2023-01-06T08:11:08.685Z,1011.38
2023-01-06T08:12:08.690Z,1011.38
2023-01-06T08:13:08.685Z,1011.35
2023-01-06T08:14:08.690Z,1011.36
2023-01-06T08:15:08.706Z,1011.36
2023-01-06T08:16:08.771Z,1011.38
2023-01-06T08:17:08.712Z,1011.40
2023-01-06T08:18:08.716Z,1011.39
2023-01-06T08:19:08.735Z,1011.38
2023-01-06T08:20:08.721Z,1011.38
2023-01-06T08:21:08.732Z,1011.36
2023-01-06T08:22:08.719Z,1011.37
2023-01-06T08:23:08.732Z,1011.39
2023-01-06T08:24:08.738Z,1011.39
2023-01-06T08:25:08.739Z,1011.38
2023-01-06T08:26:08.736Z,1011.31
2023-01-06T08:27:08.754Z,1011.28
2023-01-06T08:28:08.752Z,1011.23
2023-01-06T08:29:08.757Z,1011.20
2023-01-06T08:30:08.759Z,1011.22
2023-01-06T08:31:08.831Z,1011.23
2023-01-06T08:32:10.833Z,1011.25
2023-01-06T08:33:08.778Z,1011.27
2023-01-06T08:34:08.777Z,1011.29
2023-01-06T08:35:08.900Z,1011.34
2023-01-06T08:36:08.790Z,1011.35
2023-01-06T08:37:08.790Z,1011.37
2023-01-06T08:38:08.786Z,1011.39
2023-01-06T08:39:08.796Z,1011.42
2023-01-06T08:40:08.823Z,1011.44
2023-01-06T08:41:08.806Z,1011.42
2023-01-06T08:42:08.802Z,1011.46
2023-01-06T08:43:08.815Z,1011.40
2023-01-06T08:44:08.815Z,1011.42
2023-01-06T08:45:08.824Z,1011.38
2023-01-06T08:46:08.863Z,1011.39
2023-01-06T08:47:08.829Z,1011.37
2023-01-06T08:48:08.827Z,1011.37
2023-01-06T08:49:08.838Z,1011.37
2023-01-06T08:50:08.850Z,1011.40
2023-01-06T08:51:08.977Z,1011.38
2023-01-06T08:52:08.853Z,1011.34
2023-01-06T08:53:08.855Z,1011.33
2023-01-06T08:54:08.887Z,1011.34
2023-01-06T08:55:08.861Z,1011.34
2023-01-06T08:56:08.859Z,1011.33
2023-01-06T08:57:08.864Z,1011.35
2023-01-06T08:58:08.878Z,1011.33
2023-01-06T08:59:08.879Z,1011.28
2023-01-06T09:00:08.873Z,1011.31
2023-01-06T09:01:08.901Z,1011.31
2023-01-06T09:02:09.003Z,1011.31
2023-01-06T09:03:08.894Z,1011.31
2023-01-06T09:04:08.898Z,1011.30
2023-01-06T09:05:08.987Z,1011.29
2023-01-06T09:06:08.907Z,1011.31
2023-01-06T09:07:09.061Z,1011.27
2023-01-06T09:08:08.920Z,1011.22
2023-01-06T09:09:08.914Z,1011.26
2023-01-06T09:10:08.927Z,1011.31
2023-01-06T09:11:08.953Z,1011.31
2023-01-06T09:12:08.953Z,1011.31
2023-01-06T09:13:08.931Z,1011.35
2023-01-06T09:14:08.936Z,1011.31
2023-01-06T09:15:08.939Z,1011.32
2023-01-06T09:16:09.041Z,1011.32
2023-01-06T09:17:08.961Z,1011.31
2023-01-06T09:18:08.985Z,1011.30
2023-01-06T09:19:08.955Z,1011.27
2023-01-06T09:20:08.967Z,1011.26
2023-01-06T09:21:08.966Z,1011.25
2023-01-06T09:22:08.982Z,1011.27
2023-01-06T09:23:09.092Z,1011.23
2023-01-06T09:24:08.979Z,1011.25
2023-01-06T09:25:08.996Z,1011.25
2023-01-06T09:26:08.994Z,1011.31
2023-01-06T09:27:08.993Z,1011.33
2023-01-06T09:28:09.001Z,1011.35
2023-01-06T09:29:09.007Z,1011.32
2023-01-06T09:30:09.015Z,1011.28
2023-01-06T09:31:09.052Z,1011.24
2023-01-06T09:32:09.023Z,1011.24
2023-01-06T09:33:09.033Z,1011.19
2023-01-06T09:34:09.020Z,1011.22
2023-01-06T09:35:09.053Z,1011.20
2023-01-06T09:36:09.046Z,1011.17
2023-01-06T09:37:09.036Z,1011.12
2023-01-06T09:38:09.040Z,1011.19
2023-01-06T09:39:09.172Z,1011.17
2023-01-06T09:40:09.049Z,1011.18
2023-01-06T09:41:09.053Z,1011.20
2023-01-06T09:42:09.059Z,1011.23
2023-01-06T09:43:09.072Z,1011.21
2023-01-06T09:44:09.072Z,1011.24
2023-01-06T09:45:09.071Z,1011.23
2023-01-06T09:46:09.125Z,1011.25
2023-01-06T09:47:09.086Z,1011.22
2023-01-06T09:48:09.094Z,1011.20
2023-01-06T09:49:09.091Z,1011.22
2023-01-06T09:50:09.101Z,1011.19
2023-01-06T09:51:09.104Z,1011.20
2023-01-06T09:52:09.117Z,1011.20
2023-01-06T09:53:09.105Z,1011.21
2023-01-06T09:54:09.118Z,1011.21
2023-01-06T09:55:09.238Z,1011.21
2023-01-06T09:56:09.127Z,1011.15
2023-01-06T09:57:09.133Z,1011.10
2023-01-06T09:58:09.133Z,1011.13
2023-01-06T09:59:09.135Z,1011.13
2023-01-06T10:00:09.145Z,1011.10
2023-01-06T10:01:09.193Z,1011.08
2023-01-06T10:02:09.291Z,1011.09
2023-01-06T10:03:09.150Z,1011.08
2023-01-06T10:04:09.208Z,1011.11
2023-01-06T10:05:09.167Z,1011.08
2023-01-06T10:06:09.224Z,1011.02
2023-01-06T10:07:09.168Z,1011.03
2023-01-06T10:08:09.171Z,1010.95
2023-01-06T10:09:09.181Z,1010.90
2023-01-06T10:10:09.187Z,1010.89
2023-01-06T10:11:10.740Z,1010.86
2023-01-06T10:12:09.191Z,1010.86
2023-01-06T10:13:09.203Z,1010.93
2023-01-06T10:14:09.213Z,1010.94
2023-01-06T10:15:09.206Z,1010.91
2023-01-06T10:16:09.273Z,1010.92
2023-01-06T10:17:09.220Z,1010.94
2023-01-06T10:18:09.225Z,1010.91
2023-01-06T10:19:09.235Z,1010.90
2023-01-06T10:21:00.218Z,1010.79
2023-01-06T10:22:49.355Z,1010.75
2023-01-06T10:23:49.355Z,1010.72
2023-01-06T10:24:49.365Z,1010.70
2023-01-06T10:25:49.364Z,1010.68
2023-01-06T10:26:49.485Z,1010.68
2023-01-06T10:27:49.373Z,1010.59
2023-01-06T10:28:49.393Z,1010.58
2023-01-06T10:29:49.387Z,1010.54
2023-01-06T10:30:49.385Z,1010.56
2023-01-06T10:31:49.480Z,1010.51
2023-01-06T10:32:49.403Z,1010.57
2023-01-06T10:33:49.398Z,1010.58
2023-01-06T10:34:49.411Z,1010.51
2023-01-06T10:35:49.412Z,1010.46
2023-01-06T10:36:49.423Z,1010.49
2023-01-06T10:37:49.426Z,1010.42
2023-01-06T10:38:49.431Z,1010.47
2023-01-06T10:39:49.437Z,1010.41
2023-01-06T10:40:49.453Z,1010.32
2023-01-06T10:41:49.447Z,1010.28
2023-01-06T10:42:49.590Z,1010.31
2023-01-06T10:43:49.452Z,1010.28
2023-01-06T10:44:49.467Z,1010.26
2023-01-06T10:45:49.463Z,1010.30
2023-01-06T10:46:49.566Z,1010.32
2023-01-06T10:47:49.483Z,1010.31
2023-01-06T10:48:49.554Z,1010.32
2023-01-06T10:49:49.487Z,1010.29
2023-01-06T10:50:49.509Z,1010.24
2023-01-06T10:51:49.504Z,1010.29
2023-01-06T10:52:49.513Z,1010.30
2023-01-06T10:53:49.514Z,1010.33
2023-01-06T10:54:49.529Z,1010.27
2023-01-06T10:55:49.526Z,1010.30
2023-01-06T10:56:49.571Z,1010.29
2023-01-06T10:57:49.560Z,1010.24
2023-01-06T10:58:49.678Z,1010.26
2023-01-06T10:59:49.555Z,1010.26
2023-01-06T11:00:49.625Z,1010.31
2023-01-06T11:01:49.735Z,1010.27
2023-01-06T11:02:49.667Z,1010.24
2023-01-06T11:03:49.580Z,1010.22
2023-01-06T11:04:49.587Z,1010.25
2023-01-06T11:05:50.605Z,1010.21
2023-01-06T11:06:49.602Z,1010.25
2023-01-06T11:07:49.665Z,1010.25
2023-01-06T11:08:49.612Z,1010.24
2023-01-06T11:09:49.629Z,1010.16
2023-01-06T11:10:49.625Z,1010.16
2023-01-06T11:11:49.629Z,1010.14
2023-01-06T11:12:49.652Z,1010.10
2023-01-06T11:13:49.641Z,1010.10
2023-01-06T11:14:49.704Z,1010.10
2023-01-06T11:15:49.653Z,1010.16
2023-01-06T11:16:49.669Z,1010.16
2023-01-06T11:17:49.673Z,1010.12
2023-01-06T11:18:49.712Z,1010.16
2023-01-06T11:19:49.679Z,1010.14
2023-01-06T11:20:49.723Z,1010.16
2023-01-06T11:21:49.737Z,1010.12
2023-01-06T11:22:49.775Z,1010.13
2023-01-06T11:24:49.737Z,1010.12
2023-01-06T11:25:49.722Z,1010.17
2023-01-06T11:26:49.740Z,1010.17
2023-01-06T11:27:49.742Z,1010.17
2023-01-06T11:28:49.758Z,1010.14
2023-01-06T11:29:49.785Z,1010.18
2023-01-06T11:30:49.785Z,1010.16
2023-01-06T11:31:49.883Z,1010.16
2023-01-06T11:32:49.766Z,1010.13
2023-01-06T11:33:49.775Z,1010.19
2023-01-06T11:34:49.766Z,1010.13
2023-01-06T11:35:49.788Z,1010.10
2023-01-06T11:36:49.784Z,1010.07
2023-01-06T11:37:49.783Z,1010.09
2023-01-06T11:38:49.797Z,1010.09
2023-01-06T11:40:00.364Z,1010.12
2023-01-06T11:40:49.801Z,1010.09
2023-01-06T11:41:49.822Z,1010.09
2023-01-06T11:42:49.857Z,1010.04
2023-01-06T11:43:51.758Z,1010.01
2023-01-06T11:44:49.824Z,1010.04
2023-01-06T11:45:50.013Z,1010.03
2023-01-06T11:46:49.870Z,1010.01
2023-01-06T11:47:49.869Z,1010.00
2023-01-06T11:48:49.849Z,1010.03
2023-01-06T11:49:49.878Z,1010.02
2023-01-06T11:50:49.862Z,1010.03
2023-01-06T11:51:49.898Z,1010.04
2023-01-06T11:52:49.875Z,1009.98
2023-01-06T11:53:49.888Z,1009.99
2023-01-06T11:54:49.886Z,1009.98
2023-01-06T11:55:49.894Z,1009.95
2023-01-06T11:56:49.899Z,1009.99
2023-01-06T11:57:49.941Z,1009.99
2023-01-06T11:58:49.922Z,1010.01
2023-01-06T11:59:49.927Z,1009.97
2023-01-06T12:00:49.926Z,1010.01
2023-01-06T12:01:50.111Z,1010.01
2023-01-06T12:02:50.048Z,1010.00
2023-01-06T12:03:49.942Z,1010.02
2023-01-06T12:04:49.953Z,1010.01
2023-01-06T12:05:49.954Z,1009.99
2023-01-06T12:06:49.957Z,1009.96
2023-01-06T12:07:49.972Z,1010.01